Terminal Aerodrome Forecast
Issued by NWS Lake Charles, LA

Home | Current Version | Previous Version | Text Only | Print | Product List | Glossary On
Versions: 1 2 3 4 5 6 7 8 9 10 11 12 13 14 15 16 17 18 19
000
FTUS44 KLCH 281100
TAFARA
TAF
KARA 281125Z 2812/2912 08006KT P6SM SCT035 SCT220
     FM281600 14010KT P6SM VCTS SCT035CB SCT120 SCT220
      TEMPO 2818/2822 VRB15G25KT 3SM -TSRA BKN030CB BKN120
     FM282300 10004KT P6SM SCT120 SCT250=

USA.gov is the U.S. government's official web portal to all federal, state and local government web resources and services.